sensor_id;sensor_type;location;lat;lon;timestamp;P1;durP1;ratioP1;P2;durP2;ratioP2
77160;SDS011;66135;0.000;0.000;2023-02-18T00:00:08;1.97;;;1.80;;
77160;SDS011;66135;0.000;0.000;2023-02-18T00:02:38;1.52;;;1.42;;
77160;SDS011;66135;0.000;0.000;2023-02-18T00:07:33;0.80;;;0.52;;
77160;SDS011;66135;0.000;0.000;2023-02-18T00:09:59;1.73;;;1.63;;
77160;SDS011;66135;0.000;0.000;2023-02-18T00:14:50;2.47;;;1.88;;
77160;SDS011;66135;0.000;0.000;2023-02-18T00:19:41;2.13;;;1.77;;
77160;SDS011;66135;0.000;0.000;2023-02-18T00:22:06;1.83;;;1.73;;
77160;SDS011;66135;0.000;0.000;2023-02-18T00:24:31;1.60;;;1.50;;
77160;SDS011;66135;0.000;0.000;2023-02-18T00:29:22;1.60;;;1.50;;
77160;SDS011;66135;0.000;0.000;2023-02-18T00:31:48;1.30;;;0.75;;
77160;SDS011;66135;0.000;0.000;2023-02-18T00:36:38;1.63;;;1.52;;
77160;SDS011;66135;0.000;0.000;2023-02-18T00:39:05;1.25;;;1.15;;
77160;SDS011;66135;0.000;0.000;2023-02-18T00:41:40;1.88;;;1.77;;
77160;SDS011;66135;0.000;0.000;2023-02-18T00:44:07;1.58;;;1.48;;
77160;SDS011;66135;0.000;0.000;2023-02-18T00:46:33;2.03;;;1.92;;
77160;SDS011;66135;0.000;0.000;2023-02-18T00:51:24;1.80;;;1.70;;
77160;SDS011;66135;0.000;0.000;2023-02-18T00:53:50;1.58;;;1.48;;
77160;SDS011;66135;0.000;0.000;2023-02-18T00:56:15;1.90;;;1.60;;
77160;SDS011;66135;0.000;0.000;2023-02-18T00:58:41;2.03;;;1.67;;
77160;SDS011;66135;0.000;0.000;2023-02-18T01:03:33;1.88;;;1.77;;
77160;SDS011;66135;0.000;0.000;2023-02-18T01:05:59;2.58;;;2.10;;
77160;SDS011;66135;0.000;0.000;2023-02-18T01:10:52;1.65;;;1.55;;
77160;SDS011;66135;0.000;0.000;2023-02-18T01:13:19;2.17;;;1.98;;
77160;SDS011;66135;0.000;0.000;2023-02-18T01:15:45;2.03;;;0.80;;
77160;SDS011;66135;0.000;0.000;2023-02-18T01:20:45;1.15;;;0.88;;
77160;SDS011;66135;0.000;0.000;2023-02-18T01:25:36;1.40;;;1.30;;
77160;SDS011;66135;0.000;0.000;2023-02-18T01:28:03;1.83;;;1.08;;
77160;SDS011;66135;0.000;0.000;2023-02-18T01:30:29;1.60;;;0.50;;
77160;SDS011;66135;0.000;0.000;2023-02-18T01:35:21;2.08;;;1.88;;
77160;SDS011;66135;0.000;0.000;2023-02-18T01:37:48;1.60;;;0.55;;
77160;SDS011;66135;0.000;0.000;2023-02-18T01:40:26;1.85;;;1.75;;
77160;SDS011;66135;0.000;0.000;2023-02-18T01:43:01;0.82;;;0.50;;
77160;SDS011;66135;0.000;0.000;2023-02-18T01:50:29;1.60;;;1.50;;
77160;SDS011;66135;0.000;0.000;2023-02-18T01:52:55;1.70;;;0.85;;
77160;SDS011;66135;0.000;0.000;2023-02-18T01:55:21;2.55;;;2.35;;
77160;SDS011;66135;0.000;0.000;2023-02-18T02:00:13;1.75;;;1.65;;
77160;SDS011;66135;0.000;0.000;2023-02-18T02:02:46;1.88;;;1.70;;
77160;SDS011;66135;0.000;0.000;2023-02-18T02:05:13;1.92;;;1.83;;
77160;SDS011;66135;0.000;0.000;2023-02-18T02:07:40;1.45;;;1.27;;
77160;SDS011;66135;0.000;0.000;2023-02-18T02:10:07;1.65;;;0.60;;
77160;SDS011;66135;0.000;0.000;2023-02-18T02:35:45;1.60;;;1.50;;
77160;SDS011;66135;0.000;0.000;2023-02-18T02:38:31;1.90;;;1.80;;
77160;SDS011;66135;0.000;0.000;2023-02-18T02:41:11;1.75;;;1.60;;
77160;SDS011;66135;0.000;0.000;2023-02-18T02:43:50;1.67;;;1.50;;
77160;SDS011;66135;0.000;0.000;2023-02-18T02:46:27;2.25;;;2.08;;
77160;SDS011;66135;0.000;0.000;2023-02-18T02:54:34;1.40;;;1.27;;
77160;SDS011;66135;0.000;0.000;2023-02-18T02:59:31;1.48;;;1.38;;
77160;SDS011;66135;0.000;0.000;2023-02-18T03:04:43;1.77;;;1.55;;
77160;SDS011;66135;0.000;0.000;2023-02-18T03:10:41;2.10;;;2.00;;
77160;SDS011;66135;0.000;0.000;2023-02-18T03:13:56;1.48;;;1.38;;
77160;SDS011;66135;0.000;0.000;2023-02-18T03:16:25;1.67;;;1.55;;
77160;SDS011;66135;0.000;0.000;2023-02-18T03:19:09;1.45;;;1.25;;
77160;SDS011;66135;0.000;0.000;2023-02-18T03:22:15;1.70;;;1.45;;
77160;SDS011;66135;0.000;0.000;2023-02-18T03:24:45;0.98;;;0.32;;
77160;SDS011;66135;0.000;0.000;2023-02-18T03:29:49;1.50;;;1.40;;
77160;SDS011;66135;0.000;0.000;2023-02-18T03:32:20;1.38;;;1.27;;
77160;SDS011;66135;0.000;0.000;2023-02-18T03:34:49;1.45;;;1.15;;
77160;SDS011;66135;0.000;0.000;2023-02-18T03:37:29;1.55;;;1.45;;
77160;SDS011;66135;0.000;0.000;2023-02-18T03:39:56;2.58;;;1.52;;
77160;SDS011;66135;0.000;0.000;2023-02-18T03:42:26;1.42;;;1.33;;
77160;SDS011;66135;0.000;0.000;2023-02-18T03:44:53;0.77;;;0.50;;
77160;SDS011;66135;0.000;0.000;2023-02-18T03:47:18;1.65;;;1.55;;
77160;SDS011;66135;0.000;0.000;2023-02-18T03:49:44;1.30;;;1.15;;
77160;SDS011;66135;0.000;0.000;2023-02-18T03:52:09;1.95;;;1.27;;
77160;SDS011;66135;0.000;0.000;2023-02-18T03:54:35;1.95;;;1.85;;
77160;SDS011;66135;0.000;0.000;2023-02-18T03:57:01;1.75;;;1.65;;
77160;SDS011;66135;0.000;0.000;2023-02-18T03:59:27;1.95;;;1.48;;
77160;SDS011;66135;0.000;0.000;2023-02-18T04:01:52;1.33;;;0.85;;
77160;SDS011;66135;0.000;0.000;2023-02-18T04:04:17;1.08;;;0.98;;
77160;SDS011;66135;0.000;0.000;2023-02-18T04:06:43;1.33;;;0.32;;
77160;SDS011;66135;0.000;0.000;2023-02-18T04:09:08;0.88;;;0.40;;
77160;SDS011;66135;0.000;0.000;2023-02-18T04:11:37;1.67;;;0.98;;
77160;SDS011;66135;0.000;0.000;2023-02-18T04:14:03;1.20;;;0.43;;
77160;SDS011;66135;0.000;0.000;2023-02-18T04:16:29;1.33;;;1.23;;
77160;SDS011;66135;0.000;0.000;2023-02-18T04:18:55;1.52;;;1.25;;
77160;SDS011;66135;0.000;0.000;2023-02-18T04:21:20;2.03;;;1.15;;
77160;SDS011;66135;0.000;0.000;2023-02-18T04:23:46;1.08;;;0.40;;
77160;SDS011;66135;0.000;0.000;2023-02-18T04:26:11;1.40;;;1.27;;
77160;SDS011;66135;0.000;0.000;2023-02-18T04:28:37;1.52;;;1.00;;
77160;SDS011;66135;0.000;0.000;2023-02-18T04:31:02;1.08;;;0.55;;
77160;SDS011;66135;0.000;0.000;2023-02-18T04:33:28;1.50;;;1.40;;
77160;SDS011;66135;0.000;0.000;2023-02-18T04:35:53;1.33;;;1.02;;
77160;SDS011;66135;0.000;0.000;2023-02-18T04:40:44;1.37;;;1.20;;
77160;SDS011;66135;0.000;0.000;2023-02-18T04:43:09;1.25;;;1.15;;
77160;SDS011;66135;0.000;0.000;2023-02-18T04:45:39;1.35;;;1.00;;
77160;SDS011;66135;0.000;0.000;2023-02-18T04:48:04;1.33;;;0.95;;
77160;SDS011;66135;0.000;0.000;2023-02-18T04:50:30;1.30;;;1.30;;
77160;SDS011;66135;0.000;0.000;2023-02-18T04:52:56;1.02;;;1.02;;
77160;SDS011;66135;0.000;0.000;2023-02-18T04:55:21;0.73;;;0.30;;
77160;SDS011;66135;0.000;0.000;2023-02-18T04:57:46;1.00;;;0.85;;
77160;SDS011;66135;0.000;0.000;2023-02-18T05:00:14;1.40;;;1.30;;
77160;SDS011;66135;0.000;0.000;2023-02-18T05:02:42;0.50;;;0.20;;
77160;SDS011;66135;0.000;0.000;2023-02-18T05:05:08;1.90;;;1.80;;
77160;SDS011;66135;0.000;0.000;2023-02-18T05:07:33;1.95;;;1.40;;
77160;SDS011;66135;0.000;0.000;2023-02-18T05:09:59;1.65;;;1.55;;
77160;SDS011;66135;0.000;0.000;2023-02-18T05:12:24;1.30;;;1.20;;
77160;SDS011;66135;0.000;0.000;2023-02-18T05:14:50;1.38;;;1.27;;
77160;SDS011;66135;0.000;0.000;2023-02-18T05:17:15;1.83;;;1.73;;
77160;SDS011;66135;0.000;0.000;2023-02-18T05:19:41;1.40;;;1.30;;
77160;SDS011;66135;0.000;0.000;2023-02-18T05:22:06;1.02;;;1.02;;
77160;SDS011;66135;0.000;0.000;2023-02-18T05:24:32;1.25;;;1.15;;
77160;SDS011;66135;0.000;0.000;2023-02-18T05:27:00;1.27;;;1.20;;
77160;SDS011;66135;0.000;0.000;2023-02-18T05:29:25;1.30;;;1.20;;
77160;SDS011;66135;0.000;0.000;2023-02-18T05:31:51;0.98;;;0.93;;
77160;SDS011;66135;0.000;0.000;2023-02-18T05:36:42;1.08;;;0.85;;
77160;SDS011;66135;0.000;0.000;2023-02-18T05:39:08;1.83;;;1.73;;
77160;SDS011;66135;0.000;0.000;2023-02-18T05:41:33;1.05;;;0.95;;
77160;SDS011;66135;0.000;0.000;2023-02-18T05:43:58;0.85;;;0.85;;
77160;SDS011;66135;0.000;0.000;2023-02-18T05:46:43;1.38;;;1.23;;
77160;SDS011;66135;0.000;0.000;2023-02-18T05:51:33;2.20;;;0.80;;
77160;SDS011;66135;0.000;0.000;2023-02-18T05:53:59;1.10;;;0.32;;
77160;SDS011;66135;0.000;0.000;2023-02-18T05:56:24;0.93;;;0.73;;
77160;SDS011;66135;0.000;0.000;2023-02-18T05:58:49;1.42;;;0.93;;
77160;SDS011;66135;0.000;0.000;2023-02-18T06:01:15;1.02;;;0.68;;
77160;SDS011;66135;0.000;0.000;2023-02-18T06:03:41;1.17;;;1.08;;
77160;SDS011;66135;0.000;0.000;2023-02-18T06:06:06;0.88;;;0.50;;
77160;SDS011;66135;0.000;0.000;2023-02-18T06:08:32;3.78;;;1.52;;
77160;SDS011;66135;0.000;0.000;2023-02-18T06:10:57;0.82;;;0.82;;
77160;SDS011;66135;0.000;0.000;2023-02-18T06:13:23;1.20;;;1.02;;
77160;SDS011;66135;0.000;0.000;2023-02-18T06:15:51;1.08;;;0.95;;
77160;SDS011;66135;0.000;0.000;2023-02-18T06:18:17;0.95;;;0.80;;
77160;SDS011;66135;0.000;0.000;2023-02-18T06:20:43;0.65;;;0.65;;
77160;SDS011;66135;0.000;0.000;2023-02-18T06:23:11;1.13;;;0.20;;
77160;SDS011;66135;0.000;0.000;2023-02-18T06:25:36;1.30;;;1.10;;
77160;SDS011;66135;0.000;0.000;2023-02-18T06:28:01;1.63;;;0.98;;
77160;SDS011;66135;0.000;0.000;2023-02-18T06:30:27;1.60;;;1.33;;
77160;SDS011;66135;0.000;0.000;2023-02-18T06:32:52;1.27;;;0.77;;
77160;SDS011;66135;0.000;0.000;2023-02-18T06:35:17;0.40;;;0.20;;
77160;SDS011;66135;0.000;0.000;2023-02-18T06:37:43;1.40;;;0.90;;
77160;SDS011;66135;0.000;0.000;2023-02-18T06:40:09;1.17;;;0.22;;
77160;SDS011;66135;0.000;0.000;2023-02-18T06:42:35;0.70;;;0.57;;
77160;SDS011;66135;0.000;0.000;2023-02-18T06:45:00;1.45;;;1.00;;
77160;SDS011;66135;0.000;0.000;2023-02-18T06:47:26;2.08;;;0.82;;
77160;SDS011;66135;0.000;0.000;2023-02-18T06:49:51;1.85;;;0.90;;
77160;SDS011;66135;0.000;0.000;2023-02-18T06:52:17;3.05;;;0.98;;
77160;SDS011;66135;0.000;0.000;2023-02-18T06:54:42;3.38;;;0.20;;
77160;SDS011;66135;0.000;0.000;2023-02-18T06:57:07;2.70;;;1.00;;
77160;SDS011;66135;0.000;0.000;2023-02-18T06:59:33;3.53;;;1.88;;
77160;SDS011;66135;0.000;0.000;2023-02-18T07:01:58;1.45;;;0.75;;
77160;SDS011;66135;0.000;0.000;2023-02-18T07:04:24;5.35;;;1.00;;
77160;SDS011;66135;0.000;0.000;2023-02-18T07:06:49;1.25;;;0.93;;
77160;SDS011;66135;0.000;0.000;2023-02-18T07:09:14;2.00;;;1.02;;
77160;SDS011;66135;0.000;0.000;2023-02-18T07:11:40;4.25;;;0.57;;
77160;SDS011;66135;0.000;0.000;2023-02-18T07:14:05;2.13;;;0.30;;
77160;SDS011;66135;0.000;0.000;2023-02-18T07:16:31;4.50;;;1.42;;
77160;SDS011;66135;0.000;0.000;2023-02-18T07:18:56;4.65;;;1.85;;
77160;SDS011;66135;0.000;0.000;2023-02-18T07:21:22;2.78;;;1.05;;
77160;SDS011;66135;0.000;0.000;2023-02-18T07:23:47;1.88;;;0.75;;
77160;SDS011;66135;0.000;0.000;2023-02-18T07:26:13;1.90;;;0.85;;
77160;SDS011;66135;0.000;0.000;2023-02-18T07:31:04;1.85;;;0.68;;
77160;SDS011;66135;0.000;0.000;2023-02-18T07:33:31;2.97;;;0.90;;
77160;SDS011;66135;0.000;0.000;2023-02-18T07:35:57;2.67;;;0.80;;
77160;SDS011;66135;0.000;0.000;2023-02-18T07:38:23;1.90;;;0.60;;
77160;SDS011;66135;0.000;0.000;2023-02-18T07:40:50;2.47;;;0.98;;
77160;SDS011;66135;0.000;0.000;2023-02-18T07:43:16;4.22;;;1.48;;
77160;SDS011;66135;0.000;0.000;2023-02-18T07:45:41;4.78;;;0.90;;
77160;SDS011;66135;0.000;0.000;2023-02-18T07:48:07;1.60;;;0.30;;
77160;SDS011;66135;0.000;0.000;2023-02-18T07:50:33;3.97;;;1.05;;
77160;SDS011;66135;0.000;0.000;2023-02-18T07:53:01;2.60;;;0.25;;
77160;SDS011;66135;0.000;0.000;2023-02-18T07:55:27;0.80;;;0.57;;
77160;SDS011;66135;0.000;0.000;2023-02-18T07:58:23;10.13;;;0.88;;
77160;SDS011;66135;0.000;0.000;2023-02-18T08:03:18;6.28;;;0.90;;
77160;SDS011;66135;0.000;0.000;2023-02-18T08:05:47;4.22;;;1.13;;
77160;SDS011;66135;0.000;0.000;2023-02-18T08:08:22;4.60;;;0.57;;
77160;SDS011;66135;0.000;0.000;2023-02-18T08:10:49;7.85;;;1.50;;
77160;SDS011;66135;0.000;0.000;2023-02-18T08:13:16;8.32;;;1.55;;
77160;SDS011;66135;0.000;0.000;2023-02-18T08:18:07;4.88;;;1.25;;
77160;SDS011;66135;0.000;0.000;2023-02-18T08:20:38;6.43;;;1.10;;
77160;SDS011;66135;0.000;0.000;2023-02-18T08:25:30;4.40;;;0.75;;
77160;SDS011;66135;0.000;0.000;2023-02-18T08:30:21;4.93;;;0.73;;
77160;SDS011;66135;0.000;0.000;2023-02-18T08:32:47;5.25;;;0.77;;
77160;SDS011;66135;0.000;0.000;2023-02-18T08:37:38;8.05;;;1.20;;
77160;SDS011;66135;0.000;0.000;2023-02-18T08:40:03;5.03;;;1.65;;
77160;SDS011;66135;0.000;0.000;2023-02-18T08:42:32;8.18;;;0.82;;
77160;SDS011;66135;0.000;0.000;2023-02-18T08:44:58;8.15;;;0.93;;
77160;SDS011;66135;0.000;0.000;2023-02-18T08:49:48;8.05;;;1.08;;
77160;SDS011;66135;0.000;0.000;2023-02-18T08:54:51;5.72;;;0.50;;
77160;SDS011;66135;0.000;0.000;2023-02-18T08:59:42;8.37;;;1.13;;
77160;SDS011;66135;0.000;0.000;2023-02-18T09:02:08;5.13;;;1.33;;
77160;SDS011;66135;0.000;0.000;2023-02-18T09:04:42;7.72;;;1.83;;
77160;SDS011;66135;0.000;0.000;2023-02-18T09:09:33;6.05;;;0.90;;
77160;SDS011;66135;0.000;0.000;2023-02-18T09:14:24;4.78;;;1.35;;
77160;SDS011;66135;0.000;0.000;2023-02-18T09:19:16;3.58;;;1.33;;
77160;SDS011;66135;0.000;0.000;2023-02-18T09:24:07;4.35;;;0.85;;
77160;SDS011;66135;0.000;0.000;2023-02-18T09:26:33;3.20;;;1.00;;
77160;SDS011;66135;0.000;0.000;2023-02-18T09:31:25;6.30;;;1.08;;
77160;SDS011;66135;0.000;0.000;2023-02-18T09:34:01;3.97;;;0.88;;
77160;SDS011;66135;0.000;0.000;2023-02-18T09:38:53;3.15;;;1.00;;
77160;SDS011;66135;0.000;0.000;2023-02-18T09:43:54;7.32;;;2.15;;
77160;SDS011;66135;0.000;0.000;2023-02-18T09:46:50;4.82;;;1.83;;
77160;SDS011;66135;0.000;0.000;2023-02-18T09:49:26;4.95;;;1.33;;
77160;SDS011;66135;0.000;0.000;2023-02-18T09:51:54;9.32;;;1.55;;
77160;SDS011;66135;0.000;0.000;2023-02-18T09:54:21;5.25;;;2.00;;
77160;SDS011;66135;0.000;0.000;2023-02-18T09:56:47;6.47;;;1.00;;
77160;SDS011;66135;0.000;0.000;2023-02-18T09:59:18;5.93;;;1.75;;
77160;SDS011;66135;0.000;0.000;2023-02-18T10:01:47;7.93;;;1.73;;
77160;SDS011;66135;0.000;0.000;2023-02-18T10:04:17;7.75;;;1.50;;
77160;SDS011;66135;0.000;0.000;2023-02-18T10:07:27;9.98;;;1.77;;
77160;SDS011;66135;0.000;0.000;2023-02-18T10:09:56;8.55;;;1.48;;
77160;SDS011;66135;0.000;0.000;2023-02-18T10:12:26;8.43;;;1.65;;
77160;SDS011;66135;0.000;0.000;2023-02-18T10:14:58;17.27;;;2.25;;
77160;SDS011;66135;0.000;0.000;2023-02-18T10:17:25;6.80;;;1.58;;
77160;SDS011;66135;0.000;0.000;2023-02-18T10:19:54;6.97;;;1.27;;
77160;SDS011;66135;0.000;0.000;2023-02-18T10:22:21;8.27;;;1.83;;
77160;SDS011;66135;0.000;0.000;2023-02-18T10:24:50;9.15;;;1.75;;
77160;SDS011;66135;0.000;0.000;2023-02-18T10:27:22;8.40;;;2.00;;
77160;SDS011;66135;0.000;0.000;2023-02-18T10:29:49;11.40;;;2.58;;
